This is the latest recevied weather packets stored in our database for station/object EA6MW-10. If no packets are shown the sender has not sent any weather packets the latest 10 day(s).
| Time | Temp. | Humidity | Pressure | Rain* | Wind** | Luminosity | Snow |
|---|---|---|---|---|---|---|---|
| 1777974857 | 33.33° C | 36% | 1012.2 hPa | - | - | - | - |
| 1777973956 | 31.11° C | 39% | 1012.3 hPa | - | - | - | - |
| 1777973056 | 25° C | 48% | 1012.3 hPa | - | - | - | - |
| 1777972156 | 26.67° C | 45% | 1012.4 hPa | - | - | - | - |
| 1777971256 | 22.78° C | 54% | 1012.3 hPa | - | - | - | - |
| 1777970356 | 26.67° C | 46% | 1012.4 hPa | - | - | - | - |
| 1777969456 | 27.22° C | 44% | 1012.5 hPa | - | - | - | - |
| 1777968555 | 25.56° C | 48% | 1012.5 hPa | - | - | - | - |
| 1777967655 | 28.33° C | 44% | 1012.6 hPa | - | - | - | - |
| 1777966755 | 28.89° C | 45% | 1012.5 hPa | - | - | - | - |
| 1777965855 | 26.67° C | 50% | 1012.4 hPa | - | - | - | - |
| 1777964954 | 27.78° C | 48% | 1012.5 hPa | - | - | - | - |
| 1777964054 | 27.22° C | 49% | 1012.7 hPa | - | - | - | - |
| 1777963154 | 25° C | 53% | 1012.8 hPa | - | - | - | - |
| 1777962254 | 22.78° C | 59% | 1012.9 hPa | - | - | - | - |
| 1777961353 | 21.11° C | 65% | 1012.8 hPa | - | - | - | - |
| 1777960453 | 16.11° C | 79% | 1012.8 hPa | - | - | - | - |
| 1777959553 | 16.67° C | 75% | 1012.5 hPa | - | - | - | - |
| 1777958652 | 16.67° C | 75% | 1012.6 hPa | - | - | - | - |
| 1777957752 | 16.11° C | 78% | 1012.5 hPa | - | - | - | - |
| 1777956852 | 16.11° C | 76% | 1012.6 hPa | - | - | - | - |
| 1777955952 | 15.56° C | 79% | 1012.6 hPa | - | - | - | - |
| 1777955052 | 16.11° C | 80% | 1012.7 hPa | - | - | - | - |
| 1777954152 | 16.11° C | 80% | 1012.9 hPa | - | - | - | - |
| 1777953251 | 16.67° C | 79% | 1012.9 hPa | - | - | - | - |
* Rain since midnight (hover to see other rain measurements)
** Current wind speed in m/s (hover to see current wind gust speed)